sensor_id;sensor_type;location;lat;lon;timestamp;P1;durP1;ratioP1;P2;durP2;ratioP2
55288;SDS011;41154;45.394;5.734;2022-08-01T00:01:03;2.63;;;2.10;;
55288;SDS011;41154;45.394;5.734;2022-08-01T00:03:29;3.10;;;2.05;;
55288;SDS011;41154;45.394;5.734;2022-08-01T00:05:54;2.63;;;2.33;;
55288;SDS011;41154;45.394;5.734;2022-08-01T00:08:20;5.38;;;2.17;;
55288;SDS011;41154;45.394;5.734;2022-08-01T00:10:46;2.47;;;2.28;;
55288;SDS011;41154;45.394;5.734;2022-08-01T00:13:12;3.35;;;2.38;;
55288;SDS011;41154;45.394;5.734;2022-08-01T00:15:37;2.65;;;2.10;;
55288;SDS011;41154;45.394;5.734;2022-08-01T00:18:03;2.40;;;2.17;;
55288;SDS011;41154;45.394;5.734;2022-08-01T00:20:29;2.70;;;2.30;;
55288;SDS011;41154;45.394;5.734;2022-08-01T00:22:55;3.72;;;2.50;;
55288;SDS011;41154;45.394;5.734;2022-08-01T00:25:20;3.42;;;2.30;;
55288;SDS011;41154;45.394;5.734;2022-08-01T00:27:46;3.17;;;2.33;;
55288;SDS011;41154;45.394;5.734;2022-08-01T00:30:12;2.42;;;2.10;;
55288;SDS011;41154;45.394;5.734;2022-08-01T00:32:38;3.83;;;2.25;;
55288;SDS011;41154;45.394;5.734;2022-08-01T00:35:03;2.38;;;2.08;;
55288;SDS011;41154;45.394;5.734;2022-08-01T00:37:29;2.38;;;2.17;;
55288;SDS011;41154;45.394;5.734;2022-08-01T00:39:55;3.70;;;2.08;;
55288;SDS011;41154;45.394;5.734;2022-08-01T00:42:21;2.80;;;2.20;;
55288;SDS011;41154;45.394;5.734;2022-08-01T00:44:47;5.63;;;2.53;;
55288;SDS011;41154;45.394;5.734;2022-08-01T00:47:12;2.55;;;2.13;;
55288;SDS011;41154;45.394;5.734;2022-08-01T00:49:38;3.25;;;2.30;;
55288;SDS011;41154;45.394;5.734;2022-08-01T00:52:04;2.45;;;2.15;;
55288;SDS011;41154;45.394;5.734;2022-08-01T00:54:31;2.83;;;2.00;;
55288;SDS011;41154;45.394;5.734;2022-08-01T00:56:57;2.78;;;2.38;;
55288;SDS011;41154;45.394;5.734;2022-08-01T00:59:23;3.38;;;2.17;;
55288;SDS011;41154;45.394;5.734;2022-08-01T01:01:49;2.22;;;2.03;;
55288;SDS011;41154;45.394;5.734;2022-08-01T01:04:15;2.60;;;2.40;;
55288;SDS011;41154;45.394;5.734;2022-08-01T01:12:21;3.05;;;2.45;;
55288;SDS011;41154;45.394;5.734;2022-08-01T01:17:54;2.58;;;2.38;;
55288;SDS011;41154;45.394;5.734;2022-08-01T01:20:24;4.22;;;2.58;;
55288;SDS011;41154;45.394;5.734;2022-08-01T01:30:43;2.90;;;2.28;;
55288;SDS011;41154;45.394;5.734;2022-08-01T01:33:11;3.38;;;2.70;;
55288;SDS011;41154;45.394;5.734;2022-08-01T01:35:41;4.80;;;2.58;;
55288;SDS011;41154;45.394;5.734;2022-08-01T01:38:15;2.92;;;2.38;;
55288;SDS011;41154;45.394;5.734;2022-08-01T01:40:45;3.85;;;2.67;;
55288;SDS011;41154;45.394;5.734;2022-08-01T01:43:13;3.20;;;2.90;;
55288;SDS011;41154;45.394;5.734;2022-08-01T01:45:40;2.88;;;2.50;;
55288;SDS011;41154;45.394;5.734;2022-08-01T01:48:07;5.13;;;2.67;;
55288;SDS011;41154;45.394;5.734;2022-08-01T01:50:35;2.92;;;2.40;;
55288;SDS011;41154;45.394;5.734;2022-08-01T01:53:02;2.80;;;2.50;;
55288;SDS011;41154;45.394;5.734;2022-08-01T01:55:30;2.58;;;2.38;;
55288;SDS011;41154;45.394;5.734;2022-08-01T01:57:57;3.28;;;2.40;;
55288;SDS011;41154;45.394;5.734;2022-08-01T02:00:25;2.75;;;2.55;;
55288;SDS011;41154;45.394;5.734;2022-08-01T02:02:52;2.90;;;2.60;;
55288;SDS011;41154;45.394;5.734;2022-08-01T02:05:21;2.78;;;2.58;;
55288;SDS011;41154;45.394;5.734;2022-08-01T02:07:49;3.08;;;2.60;;
55288;SDS011;41154;45.394;5.734;2022-08-01T02:10:17;2.63;;;2.42;;
55288;SDS011;41154;45.394;5.734;2022-08-01T02:12:44;3.63;;;2.80;;
55288;SDS011;41154;45.394;5.734;2022-08-01T02:15:13;5.93;;;2.97;;
55288;SDS011;41154;45.394;5.734;2022-08-01T02:17:41;2.47;;;2.28;;
55288;SDS011;41154;45.394;5.734;2022-08-01T02:20:10;5.03;;;2.60;;
55288;SDS011;41154;45.394;5.734;2022-08-01T02:22:40;4.45;;;2.63;;
55288;SDS011;41154;45.394;5.734;2022-08-01T02:25:26;3.55;;;2.75;;
55288;SDS011;41154;45.394;5.734;2022-08-01T02:30:26;3.53;;;2.83;;
55288;SDS011;41154;45.394;5.734;2022-08-01T02:33:02;3.88;;;2.83;;
55288;SDS011;41154;45.394;5.734;2022-08-01T02:35:31;3.08;;;2.75;;
55288;SDS011;41154;45.394;5.734;2022-08-01T02:38:01;5.55;;;2.72;;
55288;SDS011;41154;45.394;5.734;2022-08-01T02:40:29;3.78;;;2.50;;
55288;SDS011;41154;45.394;5.734;2022-08-01T02:42:58;2.92;;;2.40;;
55288;SDS011;41154;45.394;5.734;2022-08-01T02:45:27;2.92;;;2.15;;
55288;SDS011;41154;45.394;5.734;2022-08-01T02:47:55;6.07;;;2.40;;
55288;SDS011;41154;45.394;5.734;2022-08-01T02:50:26;4.47;;;2.70;;
55288;SDS011;41154;45.394;5.734;2022-08-01T02:52:54;3.47;;;2.97;;
55288;SDS011;41154;45.394;5.734;2022-08-01T02:55:22;3.67;;;2.67;;
55288;SDS011;41154;45.394;5.734;2022-08-01T02:57:49;3.70;;;2.80;;
55288;SDS011;41154;45.394;5.734;2022-08-01T03:00:17;3.75;;;2.75;;
55288;SDS011;41154;45.394;5.734;2022-08-01T03:02:44;3.00;;;2.50;;
55288;SDS011;41154;45.394;5.734;2022-08-01T03:05:16;3.10;;;2.50;;
55288;SDS011;41154;45.394;5.734;2022-08-01T03:07:42;3.00;;;2.70;;
55288;SDS011;41154;45.394;5.734;2022-08-01T03:10:10;2.90;;;2.60;;
55288;SDS011;41154;45.394;5.734;2022-08-01T03:12:36;3.10;;;2.80;;
55288;SDS011;41154;45.394;5.734;2022-08-01T03:15:04;4.78;;;2.50;;
55288;SDS011;41154;45.394;5.734;2022-08-01T03:17:31;4.00;;;3.03;;
55288;SDS011;41154;45.394;5.734;2022-08-01T03:19:58;4.05;;;3.03;;
55288;SDS011;41154;45.394;5.734;2022-08-01T03:22:28;3.05;;;2.55;;
55288;SDS011;41154;45.394;5.734;2022-08-01T03:24:56;3.05;;;2.75;;
55288;SDS011;41154;45.394;5.734;2022-08-01T03:27:24;3.85;;;2.63;;
55288;SDS011;41154;45.394;5.734;2022-08-01T03:29:54;3.28;;;2.97;;
55288;SDS011;41154;45.394;5.734;2022-08-01T03:32:23;3.22;;;2.92;;
55288;SDS011;41154;45.394;5.734;2022-08-01T03:34:52;3.28;;;2.53;;
55288;SDS011;41154;45.394;5.734;2022-08-01T03:37:23;3.03;;;2.70;;
55288;SDS011;41154;45.394;5.734;2022-08-01T03:39:57;4.07;;;2.90;;
55288;SDS011;41154;45.394;5.734;2022-08-01T03:42:33;3.55;;;2.95;;
55288;SDS011;41154;45.394;5.734;2022-08-01T03:45:07;3.22;;;2.67;;
55288;SDS011;41154;45.394;5.734;2022-08-01T03:47:35;4.25;;;3.00;;
55288;SDS011;41154;45.394;5.734;2022-08-01T03:50:03;4.50;;;3.10;;
55288;SDS011;41154;45.394;5.734;2022-08-01T03:52:31;3.30;;;2.85;;
55288;SDS011;41154;45.394;5.734;2022-08-01T03:55:02;5.60;;;3.10;;
55288;SDS011;41154;45.394;5.734;2022-08-01T03:57:32;3.85;;;3.20;;
55288;SDS011;41154;45.394;5.734;2022-08-01T03:59:59;3.05;;;2.75;;
55288;SDS011;41154;45.394;5.734;2022-08-01T04:02:28;4.38;;;3.13;;
55288;SDS011;41154;45.394;5.734;2022-08-01T04:04:55;3.53;;;2.72;;
55288;SDS011;41154;45.394;5.734;2022-08-01T04:07:22;3.30;;;3.00;;
55288;SDS011;41154;45.394;5.734;2022-08-01T04:09:52;3.50;;;2.90;;
55288;SDS011;41154;45.394;5.734;2022-08-01T04:12:19;4.25;;;3.13;;
55288;SDS011;41154;45.394;5.734;2022-08-01T04:14:45;3.65;;;3.10;;
55288;SDS011;41154;45.394;5.734;2022-08-01T04:17:11;2.95;;;2.70;;
55288;SDS011;41154;45.394;5.734;2022-08-01T04:19:37;3.55;;;2.90;;
55288;SDS011;41154;45.394;5.734;2022-08-01T04:22:03;3.22;;;2.92;;
55288;SDS011;41154;45.394;5.734;2022-08-01T04:24:29;6.95;;;3.30;;
55288;SDS011;41154;45.394;5.734;2022-08-01T04:26:58;4.78;;;2.60;;
55288;SDS011;41154;45.394;5.734;2022-08-01T04:29:26;3.17;;;2.88;;
55288;SDS011;41154;45.394;5.734;2022-08-01T04:31:55;3.78;;;2.92;;
55288;SDS011;41154;45.394;5.734;2022-08-01T04:34:23;3.17;;;2.63;;
55288;SDS011;41154;45.394;5.734;2022-08-01T04:36:54;3.33;;;2.97;;
55288;SDS011;41154;45.394;5.734;2022-08-01T04:39:21;3.33;;;2.60;;
55288;SDS011;41154;45.394;5.734;2022-08-01T04:41:52;3.50;;;3.15;;
55288;SDS011;41154;45.394;5.734;2022-08-01T04:44:23;3.67;;;2.60;;
55288;SDS011;41154;45.394;5.734;2022-08-01T04:46:50;3.42;;;3.13;;
55288;SDS011;41154;45.394;5.734;2022-08-01T04:49:19;3.20;;;2.90;;
55288;SDS011;41154;45.394;5.734;2022-08-01T04:51:50;4.40;;;3.00;;
55288;SDS011;41154;45.394;5.734;2022-08-01T04:54:17;3.03;;;2.72;;
55288;SDS011;41154;45.394;5.734;2022-08-01T04:56:43;3.55;;;3.22;;
55288;SDS011;41154;45.394;5.734;2022-08-01T04:59:09;3.53;;;3.20;;
55288;SDS011;41154;45.394;5.734;2022-08-01T05:01:53;4.80;;;2.88;;
55288;SDS011;41154;45.394;5.734;2022-08-01T05:04:19;4.88;;;3.17;;
55288;SDS011;41154;45.394;5.734;2022-08-01T05:06:45;5.15;;;3.10;;
55288;SDS011;41154;45.394;5.734;2022-08-01T05:09:11;6.50;;;3.45;;
55288;SDS011;41154;45.394;5.734;2022-08-01T05:11:36;3.17;;;2.88;;
55288;SDS011;41154;45.394;5.734;2022-08-01T05:14:02;6.25;;;3.17;;
55288;SDS011;41154;45.394;5.734;2022-08-01T05:16:28;5.65;;;3.00;;
55288;SDS011;41154;45.394;5.734;2022-08-01T05:18:53;5.45;;;3.42;;
55288;SDS011;41154;45.394;5.734;2022-08-01T05:21:19;9.98;;;3.72;;
55288;SDS011;41154;45.394;5.734;2022-08-01T05:23:45;7.25;;;3.65;;
55288;SDS011;41154;45.394;5.734;2022-08-01T05:26:11;7.32;;;3.75;;
55288;SDS011;41154;45.394;5.734;2022-08-01T05:28:36;5.25;;;3.35;;
55288;SDS011;41154;45.394;5.734;2022-08-01T05:31:02;4.75;;;3.22;;
55288;SDS011;41154;45.394;5.734;2022-08-01T05:33:29;4.32;;;3.25;;
55288;SDS011;41154;45.394;5.734;2022-08-01T05:35:54;4.00;;;3.50;;
55288;SDS011;41154;45.394;5.734;2022-08-01T05:38:20;4.60;;;2.90;;
55288;SDS011;41154;45.394;5.734;2022-08-01T05:40:46;3.30;;;2.85;;
55288;SDS011;41154;45.394;5.734;2022-08-01T05:43:12;3.95;;;3.10;;
55288;SDS011;41154;45.394;5.734;2022-08-01T05:45:37;5.95;;;2.55;;
55288;SDS011;41154;45.394;5.734;2022-08-01T05:48:03;3.83;;;2.35;;
55288;SDS011;41154;45.394;5.734;2022-08-01T05:50:29;4.05;;;2.47;;
55288;SDS011;41154;45.394;5.734;2022-08-01T05:52:55;5.25;;;2.60;;
55288;SDS011;41154;45.394;5.734;2022-08-01T05:55:20;2.20;;;1.90;;
55288;SDS011;41154;45.394;5.734;2022-08-01T05:57:46;2.38;;;2.17;;
55288;SDS011;41154;45.394;5.734;2022-08-01T06:00:12;4.93;;;2.42;;
55288;SDS011;41154;45.394;5.734;2022-08-01T06:02:40;2.53;;;2.33;;
55288;SDS011;41154;45.394;5.734;2022-08-01T06:05:07;2.10;;;1.90;;
55288;SDS011;41154;45.394;5.734;2022-08-01T06:07:34;2.60;;;1.80;;
55288;SDS011;41154;45.394;5.734;2022-08-01T06:10:00;3.22;;;1.95;;
55288;SDS011;41154;45.394;5.734;2022-08-01T06:12:25;5.65;;;2.22;;
55288;SDS011;41154;45.394;5.734;2022-08-01T06:14:51;2.17;;;1.98;;
55288;SDS011;41154;45.394;5.734;2022-08-01T06:17:17;2.50;;;2.03;;
55288;SDS011;41154;45.394;5.734;2022-08-01T06:19:43;3.92;;;2.47;;
55288;SDS011;41154;45.394;5.734;2022-08-01T06:22:08;2.20;;;2.00;;
55288;SDS011;41154;45.394;5.734;2022-08-01T06:24:34;2.80;;;2.10;;
55288;SDS011;41154;45.394;5.734;2022-08-01T06:27:00;3.13;;;2.00;;
55288;SDS011;41154;45.394;5.734;2022-08-01T06:29:26;2.95;;;1.90;;
55288;SDS011;41154;45.394;5.734;2022-08-01T06:31:55;2.35;;;2.00;;
55288;SDS011;41154;45.394;5.734;2022-08-01T06:34:20;1.83;;;1.73;;
55288;SDS011;41154;45.394;5.734;2022-08-01T06:36:47;2.10;;;1.90;;
55288;SDS011;41154;45.394;5.734;2022-08-01T06:39:13;2.80;;;2.03;;
55288;SDS011;41154;45.394;5.734;2022-08-01T06:41:38;3.30;;;1.77;;
55288;SDS011;41154;45.394;5.734;2022-08-01T06:44:06;3.85;;;1.98;;
55288;SDS011;41154;45.394;5.734;2022-08-01T06:46:33;1.75;;;1.63;;
55288;SDS011;41154;45.394;5.734;2022-08-01T06:48:59;3.65;;;1.80;;
55288;SDS011;41154;45.394;5.734;2022-08-01T06:51:25;3.38;;;1.90;;
55288;SDS011;41154;45.394;5.734;2022-08-01T06:53:51;1.98;;;1.77;;
55288;SDS011;41154;45.394;5.734;2022-08-01T06:56:18;2.13;;;1.73;;
55288;SDS011;41154;45.394;5.734;2022-08-01T06:58:44;1.80;;;1.70;;
55288;SDS011;41154;45.394;5.734;2022-08-01T07:01:10;2.25;;;1.83;;
55288;SDS011;41154;45.394;5.734;2022-08-01T07:03:36;2.42;;;1.90;;
55288;SDS011;41154;45.394;5.734;2022-08-01T07:06:02;2.20;;;1.90;;
55288;SDS011;41154;45.394;5.734;2022-08-01T07:08:28;4.55;;;1.80;;
55288;SDS011;41154;45.394;5.734;2022-08-01T07:10:54;2.00;;;1.63;;
55288;SDS011;41154;45.394;5.734;2022-08-01T07:13:20;2.60;;;2.00;;
55288;SDS011;41154;45.394;5.734;2022-08-01T07:15:50;2.15;;;2.00;;
55288;SDS011;41154;45.394;5.734;2022-08-01T07:18:17;2.33;;;2.08;;
55288;SDS011;41154;45.394;5.734;2022-08-01T07:20:42;1.98;;;1.85;;
55288;SDS011;41154;45.394;5.734;2022-08-01T07:23:11;2.78;;;1.80;;
55288;SDS011;41154;45.394;5.734;2022-08-01T07:25:38;1.90;;;1.70;;
55288;SDS011;41154;45.394;5.734;2022-08-01T07:28:03;1.73;;;1.50;;
55288;SDS011;41154;45.394;5.734;2022-08-01T07:30:30;2.13;;;1.73;;
55288;SDS011;41154;45.394;5.734;2022-08-01T07:32:56;4.18;;;1.75;;
55288;SDS011;41154;45.394;5.734;2022-08-01T07:35:22;1.75;;;1.65;;
55288;SDS011;41154;45.394;5.734;2022-08-01T07:37:47;1.95;;;1.80;;
55288;SDS011;41154;45.394;5.734;2022-08-01T07:40:14;1.77;;;1.67;;
55288;SDS011;41154;45.394;5.734;2022-08-01T07:42:40;1.60;;;1.50;;
55288;SDS011;41154;45.394;5.734;2022-08-01T07:45:09;2.95;;;1.85;;
55288;SDS011;41154;45.394;5.734;2022-08-01T07:47:35;1.58;;;1.48;;
55288;SDS011;41154;45.394;5.734;2022-08-01T07:50:02;2.25;;;1.55;;
55288;SDS011;41154;45.394;5.734;2022-08-01T07:52:29;1.73;;;1.58;;
55288;SDS011;41154;45.394;5.734;2022-08-01T07:54:55;1.95;;;1.75;;
55288;SDS011;41154;45.394;5.734;2022-08-01T07:57:22;2.20;;;1.80;;
55288;SDS011;41154;45.394;5.734;2022-08-01T07:59:48;2.72;;;1.77;;
55288;SDS011;41154;45.394;5.734;2022-08-01T08:02:14;4.63;;;1.70;;
55288;SDS011;41154;45.394;5.734;2022-08-01T08:04:40;1.60;;;1.40;;
55288;SDS011;41154;45.394;5.734;2022-08-01T08:07:06;2.38;;;1.60;;
55288;SDS011;41154;45.394;5.734;2022-08-01T08:09:32;2.92;;;1.50;;
55288;SDS011;41154;45.394;5.734;2022-08-01T08:11:58;1.88;;;1.50;;
55288;SDS011;41154;45.394;5.734;2022-08-01T08:14:24;1.83;;;1.58;;
55288;SDS011;41154;45.394;5.734;2022-08-01T08:16:50;1.58;;;1.48;;
55288;SDS011;41154;45.394;5.734;2022-08-01T08:19:16;2.35;;;1.45;;
55288;SDS011;41154;45.394;5.734;2022-08-01T08:21:42;1.45;;;1.35;;
55288;SDS011;41154;45.394;5.734;2022-08-01T08:24:08;2.03;;;1.33;;
55288;SDS011;41154;45.394;5.734;2022-08-01T08:26:47;2.50;;;1.30;;
55288;SDS011;41154;45.394;5.734;2022-08-01T08:29:15;1.40;;;1.30;;
55288;SDS011;41154;45.394;5.734;2022-08-01T08:31:41;2.88;;;1.63;;
55288;SDS011;41154;45.394;5.734;2022-08-01T08:34:07;1.48;;;1.38;;
55288;SDS011;41154;45.394;5.734;2022-08-01T08:36:33;1.52;;;1.20;;
55288;SDS011;41154;45.394;5.734;2022-08-01T08:39:00;3.78;;;1.38;;
55288;SDS011;41154;45.394;5.734;2022-08-01T08:41:25;2.03;;;1.20;;
55288;SDS011;41154;45.394;5.734;2022-08-01T08:43:51;1.95;;;1.38;;
55288;SDS011;41154;45.394;5.734;2022-08-01T08:46:18;2.17;;;1.30;;
55288;SDS011;41154;45.394;5.734;2022-08-01T08:48:45;1.48;;;1.30;;
55288;SDS011;41154;45.394;5.734;2022-08-01T08:51:11;2.55;;;1.40;;
55288;SDS011;41154;45.394;5.734;2022-08-01T08:53:40;3.35;;;1.17;;
55288;SDS011;41154;45.394;5.734;2022-08-01T08:56:10;1.35;;;1.08;;
55288;SDS011;41154;45.394;5.734;2022-08-01T08:58:38;2.55;;;1.20;;
55288;SDS011;41154;45.394;5.734;2022-08-01T09:01:06;1.10;;;1.00;;
55288;SDS011;41154;45.394;5.734;2022-08-01T09:03:36;1.33;;;1.00;;
55288;SDS011;41154;45.394;5.734;2022-08-01T09:06:02;2.45;;;1.15;;
55288;SDS011;41154;45.394;5.734;2022-08-01T09:08:28;2.22;;;1.13;;
55288;SDS011;41154;45.394;5.734;2022-08-01T09:10:54;3.08;;;1.20;;
55288;SDS011;41154;45.394;5.734;2022-08-01T09:13:20;2.67;;;1.40;;
55288;SDS011;41154;45.394;5.734;2022-08-01T09:15:47;1.48;;;1.30;;
55288;SDS011;41154;45.394;5.734;2022-08-01T09:23:43;1.48;;;1.13;;
55288;SDS011;41154;45.394;5.734;2022-08-01T09:26:14;2.03;;;1.23;;
55288;SDS011;41154;45.394;5.734;2022-08-01T09:28:42;1.30;;;1.20;;
55288;SDS011;41154;45.394;5.734;2022-08-01T09:31:09;1.60;;;1.08;;
55288;SDS011;41154;45.394;5.734;2022-08-01T09:33:47;1.10;;;1.00;;
55288;SDS011;41154;45.394;5.734;2022-08-01T09:36:13;2.15;;;1.13;;
55288;SDS011;41154;45.394;5.734;2022-08-01T09:38:39;1.15;;;1.05;;
55288;SDS011;41154;45.394;5.734;2022-08-01T09:41:04;2.38;;;1.60;;
55288;SDS011;41154;45.394;5.734;2022-08-01T09:43:32;1.52;;;1.10;;
55288;SDS011;41154;45.394;5.734;2022-08-01T09:45:59;1.73;;;1.08;;
55288;SDS011;41154;45.394;5.734;2022-08-01T09:48:29;2.85;;;1.30;;
55288;SDS011;41154;45.394;5.734;2022-08-01T09:50:58;1.30;;;1.15;;
55288;SDS011;41154;45.394;5.734;2022-08-01T09:53:24;2.65;;;1.15;;
55288;SDS011;41154;45.394;5.734;2022-08-01T09:55:50;4.30;;;1.40;;
55288;SDS011;41154;45.394;5.734;2022-08-01T09:58:17;3.03;;;1.27;;
55288;SDS011;41154;45.394;5.734;2022-08-01T10:00:44;1.42;;;1.20;;
55288;SDS011;41154;45.394;5.734;2022-08-01T10:03:29;2.25;;;1.10;;
55288;SDS011;41154;45.394;5.734;2022-08-01T10:05:55;2.10;;;1.30;;
55288;SDS011;41154;45.394;5.734;2022-08-01T10:08:22;1.80;;;1.67;;
55288;SDS011;41154;45.394;5.734;2022-08-01T10:11:09;1.92;;;1.40;;
55288;SDS011;41154;45.394;5.734;2022-08-01T10:13:37;2.78;;;1.25;;
55288;SDS011;41154;45.394;5.734;2022-08-01T10:16:03;2.30;;;1.40;;
55288;SDS011;41154;45.394;5.734;2022-08-01T10:18:31;3.28;;;1.40;;
55288;SDS011;41154;45.394;5.734;2022-08-01T10:20:59;2.00;;;1.40;;
55288;SDS011;41154;45.394;5.734;2022-08-01T10:23:25;2.78;;;1.40;;
55288;SDS011;41154;45.394;5.734;2022-08-01T10:25:53;1.50;;;1.40;;
55288;SDS011;41154;45.394;5.734;2022-08-01T10:28:20;2.30;;;1.40;;
55288;SDS011;41154;45.394;5.734;2022-08-01T10:30:48;2.45;;;1.15;;
55288;SDS011;41154;45.394;5.734;2022-08-01T10:33:14;1.75;;;1.15;;
55288;SDS011;41154;45.394;5.734;2022-08-01T10:35:42;2.20;;;1.40;;
55288;SDS011;41154;45.394;5.734;2022-08-01T10:38:11;2.42;;;1.40;;
55288;SDS011;41154;45.394;5.734;2022-08-01T10:40:37;2.22;;;1.38;;
55288;SDS011;41154;45.394;5.734;2022-08-01T10:43:04;1.75;;;1.10;;
55288;SDS011;41154;45.394;5.734;2022-08-01T10:45:30;2.25;;;1.50;;
55288;SDS011;41154;45.394;5.734;2022-08-01T10:48:03;1.50;;;1.40;;
55288;SDS011;41154;45.394;5.734;2022-08-01T10:53:12;2.80;;;1.45;;
55288;SDS011;41154;45.394;5.734;2022-08-01T10:58:22;2.97;;;1.40;;
55288;SDS011;41154;45.394;5.734;2022-08-01T11:01:12;1.30;;;1.20;;
55288;SDS011;41154;45.394;5.734;2022-08-01T11:04:06;3.08;;;1.40;;
55288;SDS011;41154;45.394;5.734;2022-08-01T11:14:25;1.33;;;1.02;;
55288;SDS011;41154;45.394;5.734;2022-08-01T11:16:51;1.42;;;1.15;;
55288;SDS011;41154;45.394;5.734;2022-08-01T11:19:17;2.58;;;1.38;;
55288;SDS011;41154;45.394;5.734;2022-08-01T11:32:45;2.17;;;1.20;;
55288;SDS011;41154;45.394;5.734;2022-08-01T11:35:13;3.13;;;1.20;;
55288;SDS011;41154;45.394;5.734;2022-08-01T11:37:39;1.52;;;1.20;;
55288;SDS011;41154;45.394;5.734;2022-08-01T11:40:15;1.20;;;1.10;;
55288;SDS011;41154;45.394;5.734;2022-08-01T11:42:47;1.33;;;1.23;;
55288;SDS011;41154;45.394;5.734;2022-08-01T11:45:17;1.30;;;1.20;;
55288;SDS011;41154;45.394;5.734;2022-08-01T11:47:47;1.00;;;0.93;;
55288;SDS011;41154;45.394;5.734;2022-08-01T11:53:04;2.10;;;1.27;;
55288;SDS011;41154;45.394;5.734;2022-08-01T11:55:34;1.60;;;1.30;;
55288;SDS011;41154;45.394;5.734;2022-08-01T11:58:01;1.42;;;1.10;;
55288;SDS011;41154;45.394;5.734;2022-08-01T12:00:29;1.20;;;1.00;;
55288;SDS011;41154;45.394;5.734;2022-08-01T12:02:56;2.20;;;1.20;;
55288;SDS011;41154;45.394;5.734;2022-08-01T12:05:25;1.27;;;1.10;;
55288;SDS011;41154;45.394;5.734;2022-08-01T12:07:52;1.50;;;1.40;;
55288;SDS011;41154;45.394;5.734;2022-08-01T12:10:19;3.17;;;1.30;;
55288;SDS011;41154;45.394;5.734;2022-08-01T12:12:49;2.85;;;1.30;;
55288;SDS011;41154;45.394;5.734;2022-08-01T12:15:20;4.93;;;2.28;;
55288;SDS011;41154;45.394;5.734;2022-08-01T12:17:48;1.75;;;1.30;;
55288;SDS011;41154;45.394;5.734;2022-08-01T12:20:20;2.65;;;1.40;;
55288;SDS011;41154;45.394;5.734;2022-08-01T12:22:47;2.33;;;1.30;;
55288;SDS011;41154;45.394;5.734;2022-08-01T12:25:17;1.45;;;1.20;;
55288;SDS011;41154;45.394;5.734;2022-08-01T12:27:44;1.40;;;1.10;;
55288;SDS011;41154;45.394;5.734;2022-08-01T12:30:12;1.50;;;1.20;;
55288;SDS011;41154;45.394;5.734;2022-08-01T12:32:42;3.80;;;1.20;;
55288;SDS011;41154;45.394;5.734;2022-08-01T12:35:20;3.45;;;1.13;;
55288;SDS011;41154;45.394;5.734;2022-08-01T12:37:53;2.13;;;1.33;;
55288;SDS011;41154;45.394;5.734;2022-08-01T12:40:31;1.73;;;1.13;;
55288;SDS011;41154;45.394;5.734;2022-08-01T12:43:03;2.92;;;1.10;;
55288;SDS011;41154;45.394;5.734;2022-08-01T12:45:42;3.20;;;1.40;;
55288;SDS011;41154;45.394;5.734;2022-08-01T12:48:10;2.92;;;1.13;;
55288;SDS011;41154;45.394;5.734;2022-08-01T12:50:49;1.92;;;1.10;;
55288;SDS011;41154;45.394;5.734;2022-08-01T12:53:17;1.08;;;0.98;;
55288;SDS011;41154;45.394;5.734;2022-08-01T12:55:49;1.50;;;1.20;;
55288;SDS011;41154;45.394;5.734;2022-08-01T12:58:19;2.00;;;1.17;;
55288;SDS011;41154;45.394;5.734;2022-08-01T13:00:47;1.40;;;1.00;;
55288;SDS011;41154;45.394;5.734;2022-08-01T13:03:20;1.85;;;0.80;;
55288;SDS011;41154;45.394;5.734;2022-08-01T13:08:16;1.27;;;1.10;;
55288;SDS011;41154;45.394;5.734;2022-08-01T13:10:42;1.00;;;1.00;;
55288;SDS011;41154;45.394;5.734;2022-08-01T13:13:09;1.05;;;0.90;;
55288;SDS011;41154;45.394;5.734;2022-08-01T13:15:36;0.75;;;0.75;;
55288;SDS011;41154;45.394;5.734;2022-08-01T13:21:06;1.02;;;0.80;;
55288;SDS011;41154;45.394;5.734;2022-08-01T13:23:33;0.73;;;0.70;;
55288;SDS011;41154;45.394;5.734;2022-08-01T13:25:59;0.80;;;0.57;;
55288;SDS011;41154;45.394;5.734;2022-08-01T13:28:26;1.83;;;0.60;;
55288;SDS011;41154;45.394;5.734;2022-08-01T13:30:55;0.60;;;0.60;;
55288;SDS011;41154;45.394;5.734;2022-08-01T13:33:26;1.23;;;0.63;;
55288;SDS011;41154;45.394;5.734;2022-08-01T13:35:54;2.17;;;0.70;;
55288;SDS011;41154;45.394;5.734;2022-08-01T13:38:21;1.00;;;0.60;;
55288;SDS011;41154;45.394;5.734;2022-08-01T13:44:54;1.20;;;0.73;;
55288;SDS011;41154;45.394;5.734;2022-08-01T13:47:20;0.88;;;0.60;;
55288;SDS011;41154;45.394;5.734;2022-08-01T13:49:46;0.85;;;0.50;;
55288;SDS011;41154;45.394;5.734;2022-08-01T13:52:12;1.27;;;0.55;;
55288;SDS011;41154;45.394;5.734;2022-08-01T13:54:37;1.40;;;0.73;;
55288;SDS011;41154;45.394;5.734;2022-08-01T13:57:03;1.90;;;0.57;;
55288;SDS011;41154;45.394;5.734;2022-08-01T13:59:29;0.65;;;0.60;;
55288;SDS011;41154;45.394;5.734;2022-08-01T14:01:55;1.08;;;0.60;;
55288;SDS011;41154;45.394;5.734;2022-08-01T14:04:20;2.15;;;0.50;;
55288;SDS011;41154;45.394;5.734;2022-08-01T14:06:46;0.80;;;0.60;;
55288;SDS011;41154;45.394;5.734;2022-08-01T14:09:12;2.67;;;0.60;;
55288;SDS011;41154;45.394;5.734;2022-08-01T14:11:38;2.33;;;0.50;;
55288;SDS011;41154;45.394;5.734;2022-08-01T14:14:04;0.60;;;0.50;;
55288;SDS011;41154;45.394;5.734;2022-08-01T14:16:30;0.88;;;0.60;;
55288;SDS011;41154;45.394;5.734;2022-08-01T14:18:55;0.60;;;0.60;;
55288;SDS011;41154;45.394;5.734;2022-08-01T14:21:21;2.88;;;0.70;;
55288;SDS011;41154;45.394;5.734;2022-08-01T14:23:47;0.60;;;0.60;;
55288;SDS011;41154;45.394;5.734;2022-08-01T14:26:13;1.13;;;0.70;;
55288;SDS011;41154;45.394;5.734;2022-08-01T14:28:38;0.73;;;0.55;;
55288;SDS011;41154;45.394;5.734;2022-08-01T14:31:04;0.82;;;0.70;;
55288;SDS011;41154;45.394;5.734;2022-08-01T14:33:33;0.50;;;0.40;;
55288;SDS011;41154;45.394;5.734;2022-08-01T14:35:59;2.33;;;0.45;;
55288;SDS011;41154;45.394;5.734;2022-08-01T14:38:25;1.50;;;0.50;;
55288;SDS011;41154;45.394;5.734;2022-08-01T14:40:51;0.40;;;0.40;;
55288;SDS011;41154;45.394;5.734;2022-08-01T14:43:17;0.60;;;0.57;;
55288;SDS011;41154;45.394;5.734;2022-08-01T14:45:43;1.77;;;0.60;;
55288;SDS011;41154;45.394;5.734;2022-08-01T14:48:09;0.98;;;0.60;;
55288;SDS011;41154;45.394;5.734;2022-08-01T14:50:36;3.08;;;0.68;;
55288;SDS011;41154;45.394;5.734;2022-08-01T14:53:02;0.57;;;0.55;;
55288;SDS011;41154;45.394;5.734;2022-08-01T14:55:28;1.58;;;0.50;;
55288;SDS011;41154;45.394;5.734;2022-08-01T14:57:53;2.63;;;0.55;;
55288;SDS011;41154;45.394;5.734;2022-08-01T15:00:19;1.05;;;0.60;;
55288;SDS011;41154;45.394;5.734;2022-08-01T15:02:46;2.85;;;0.70;;
55288;SDS011;41154;45.394;5.734;2022-08-01T15:05:12;0.93;;;0.70;;
55288;SDS011;41154;45.394;5.734;2022-08-01T15:07:38;0.60;;;0.50;;
55288;SDS011;41154;45.394;5.734;2022-08-01T15:10:05;0.80;;;0.60;;
55288;SDS011;41154;45.394;5.734;2022-08-01T15:12:31;0.95;;;0.50;;
55288;SDS011;41154;45.394;5.734;2022-08-01T15:14:57;0.70;;;0.50;;
55288;SDS011;41154;45.394;5.734;2022-08-01T15:17:24;0.80;;;0.77;;
55288;SDS011;41154;45.394;5.734;2022-08-01T15:19:56;0.90;;;0.60;;
55288;SDS011;41154;45.394;5.734;2022-08-01T15:22:24;0.70;;;0.70;;
55288;SDS011;41154;45.394;5.734;2022-08-01T15:24:51;1.50;;;0.73;;
55288;SDS011;41154;45.394;5.734;2022-08-01T15:27:17;0.60;;;0.60;;
55288;SDS011;41154;45.394;5.734;2022-08-01T15:29:44;0.77;;;0.73;;
55288;SDS011;41154;45.394;5.734;2022-08-01T15:32:10;0.85;;;0.80;;
55288;SDS011;41154;45.394;5.734;2022-08-01T15:34:37;0.98;;;0.70;;
55288;SDS011;41154;45.394;5.734;2022-08-01T15:37:03;2.15;;;0.82;;
55288;SDS011;41154;45.394;5.734;2022-08-01T15:39:30;0.75;;;0.75;;
55288;SDS011;41154;45.394;5.734;2022-08-01T15:41:58;0.85;;;0.70;;
55288;SDS011;41154;45.394;5.734;2022-08-01T15:44:26;0.80;;;0.65;;
55288;SDS011;41154;45.394;5.734;2022-08-01T15:46:52;3.50;;;0.70;;
55288;SDS011;41154;45.394;5.734;2022-08-01T15:49:18;1.23;;;0.80;;
55288;SDS011;41154;45.394;5.734;2022-08-01T15:51:45;0.98;;;0.85;;